Time;durP1;ratioP1;P1;durP2;ratioP2;P2;SDS_P1;SDS_P2;PMS_P1;PMS_P2;Temp;Humidity;BMP_temperature;BMP_pressure;BME280_temperature;BME280_humidity;BME280_pressure;Samples;Min_cycle;Max_cycle;Signal;HPM_P1;HPM_P2
2021/03/25 00:00:08;;;;;;;54.78;31.60;;;;;;;4.99;63.88;101186.56;5032647;28;20100;-64
2021/03/25 00:02:34;;;;;;;50.03;28.85;;;;;;;4.89;63.19;101181.97;5022921;28;20033;-64
2021/03/25 00:04:59;;;;;;;53.92;31.38;;;;;;;4.76;64.56;101178.19;5033697;28;20451;-64
2021/03/25 00:07:24;;;;;;;58.35;30.85;;;;;;;5.38;62.96;101174.28;5035125;28;20079;-64
2021/03/25 00:09:50;;;;;;;59.58;28.80;;;;;;;5.73;61.55;101173.25;5027051;28;20053;-65
2021/03/25 00:12:15;;;;;;;47.58;26.25;;;;;;;5.45;61.16;101170.09;5033192;28;20121;-64
2021/03/25 00:14:41;;;;;;;52.55;28.45;;;;;;;5.18;61.63;101176.53;5050946;28;20128;-64
2021/03/25 00:17:06;;;;;;;55.65;30.30;;;;;;;5.48;62.01;101177.13;5053589;28;20025;-65
2021/03/25 00:19:31;;;;;;;62.03;31.85;;;;;;;6.05;61.13;101163.34;5054447;28;20074;-64
2021/03/25 00:21:56;;;;;;;54.60;31.80;;;;;;;5.63;61.86;101173.91;5039563;28;20032;-64
2021/03/25 00:24:22;;;;;;;59.55;30.77;;;;;;;5.58;62.29;101168.59;5038788;28;20029;-64
2021/03/25 00:26:47;;;;;;;57.65;31.50;;;;;;;5.45;62.47;101163.97;5033241;28;20072;-64
2021/03/25 00:29:14;;;;;;;52.63;29.85;;;;;;;5.42;62.14;101171.75;5038088;28;20025;-65
2021/03/25 00:31:40;;;;;;;48.70;28.27;;;;;;;5.20;62.94;101173.94;5050320;28;20025;-65
2021/03/25 00:34:05;;;;;;;51.70;30.38;;;;;;;5.23;62.70;101168.75;5055996;28;20025;-65
2021/03/25 00:36:31;;;;;;;60.80;32.47;;;;;;;5.05;63.86;101174.47;5032024;28;20034;-65
2021/03/25 00:38:58;;;;;;;54.65;32.28;;;;;;;4.87;63.72;101175.84;5022431;28;20025;-65
2021/03/25 00:41:25;;;;;;;54.00;31.23;;;;;;;4.89;64.13;101174.13;5053880;28;20025;-65
2021/03/25 00:43:50;;;;;;;59.40;32.88;;;;;;;4.58;64.89;101165.59;5053502;28;20027;-65
2021/03/25 00:46:16;;;;;;;53.05;29.95;;;;;;;4.45;65.29;101159.19;5047846;28;20022;-65
2021/03/25 00:48:41;;;;;;;43.25;27.95;;;;;;;4.63;63.94;101166.56;5035885;28;20449;-65
2021/03/25 00:51:06;;;;;;;56.92;30.45;;;;;;;4.77;63.56;101161.66;5052768;28;20083;-65
2021/03/25 00:53:36;;;;;;;56.90;30.15;;;;;;;4.89;63.78;101174.13;5054170;28;20067;-65
2021/03/25 00:56:03;;;;;;;53.30;30.05;;;;;;;4.95;63.87;101163.84;5053420;28;20050;-65
2021/03/25 00:58:28;;;;;;;59.30;32.60;;;;;;;4.81;63.63;101154.78;5035704;28;20036;-65
2021/03/25 01:00:53;;;;;;;60.28;32.17;;;;;;;5.05;64.28;101169.25;5015367;28;20109;-65
2021/03/25 01:03:22;;;;;;;57.08;31.80;;;;;;;5.17;64.10;101173.88;5037204;28;20056;-64
2021/03/25 01:05:48;;;;;;;54.05;31.70;;;;;;;4.96;63.40;101170.81;5048139;28;20078;-65
2021/03/25 01:08:13;;;;;;;57.83;30.90;;;;;;;4.84;63.38;101155.72;5033237;28;20423;-65
2021/03/25 01:10:44;;;;;;;57.97;31.65;;;;;;;4.84;64.44;101167.94;5033239;28;20063;-65
2021/03/25 01:13:35;;;;;;;69.57;32.95;;;;;;;4.67;64.67;101163.19;5039727;28;20421;-65
2021/03/25 01:16:01;;;;;;;59.95;31.50;;;;;;;4.71;64.38;101159.78;5024678;28;20380;-65
2021/03/25 01:18:28;;;;;;;57.20;31.33;;;;;;;4.33;65.38;101162.38;5050215;28;20025;-65
2021/03/25 01:20:54;;;;;;;53.03;30.02;;;;;;;4.50;65.03;101165.41;5024456;28;20021;-65
2021/03/25 01:23:19;;;;;;;55.15;30.58;;;;;;;4.70;64.31;101160.66;5023740;28;20400;-64
2021/03/25 01:25:45;;;;;;;60.22;30.10;;;;;;;4.67;64.17;101157.97;5044436;28;20058;-65
2021/03/25 01:28:12;;;;;;;56.42;30.17;;;;;;;4.83;64.07;101163.53;5023874;28;20029;-65
2021/03/25 01:30:38;;;;;;;57.92;30.35;;;;;;;4.75;64.48;101161.66;5039269;28;20032;-65
2021/03/25 01:33:06;;;;;;;53.28;29.63;;;;;;;4.60;64.15;101161.28;5017672;28;20037;-65
2021/03/25 01:35:32;;;;;;;56.28;29.08;;;;;;;4.87;63.99;101160.16;5050030;28;20025;-64
2021/03/25 01:37:58;;;;;;;50.88;29.08;;;;;;;4.95;62.99;101162.94;5025446;28;20026;-65
2021/03/25 01:40:35;;;;;;;51.65;30.25;;;;;;;4.71;64.10;101158.94;5051080;28;20376;-65
2021/03/25 01:43:19;;;;;;;56.25;30.17;;;;;;;4.60;64.51;101158.66;5047544;28;20055;-65
2021/03/25 01:45:56;;;;;;;58.47;28.92;;;;;;;5.14;64.06;101166.84;5052297;28;20021;-65
2021/03/25 01:48:25;;;;;;;53.40;28.33;;;;;;;5.04;64.00;101159.66;5047314;28;20025;-64
2021/03/25 01:50:51;;;;;;;53.08;29.77;;;;;;;4.98;63.27;101158.69;5043509;28;20033;-65
2021/03/25 01:53:38;;;;;;;53.92;29.73;;;;;;;4.80;63.66;101147.81;5048005;28;20036;-65
2021/03/25 01:56:25;;;;;;;55.03;31.23;;;;;;;4.62;64.76;101139.59;5035585;28;20087;-64
2021/03/25 01:59:13;;;;;;;48.00;29.38;;;;;;;4.78;64.15;101139.03;5051348;28;20068;-65
2021/03/25 02:01:42;;;;;;;48.40;28.73;;;;;;;4.79;63.15;101140.78;5032506;28;20098;-64
2021/03/25 02:04:33;;;;;;;54.30;28.88;;;;;;;4.82;63.64;101143.47;5034620;28;20036;-64
2021/03/25 02:07:06;;;;;;;56.70;28.75;;;;;;;4.74;64.18;101138.09;5039270;28;20029;-64
2021/03/25 02:09:53;;;;;;;62.55;30.58;;;;;;;4.81;64.28;101136.50;5032355;28;20033;-64
2021/03/25 02:12:43;;;;;;;52.67;27.80;;;;;;;4.49;65.19;101141.03;4998530;28;20025;-64
2021/03/25 02:15:16;;;;;;;49.78;28.88;;;;;;;4.37;65.34;101132.91;5017322;28;20033;-65
2021/03/25 02:17:45;;;;;;;50.05;27.98;;;;;;;4.68;64.23;101137.94;5042269;28;20068;-65
2021/03/25 02:21:00;;;;;;;55.35;29.75;;;;;;;4.58;64.21;101135.13;5047946;28;20411;-65
2021/03/25 02:23:47;;;;;;;48.78;25.42;;;;;;;5.01;62.35;101129.97;4950931;28;20026;-65
2021/03/25 02:26:22;;;;;;;47.20;25.52;;;;;;;4.70;62.81;101131.91;5042992;28;20036;-65
2021/03/25 02:29:00;;;;;;;45.40;25.77;;;;;;;4.49;63.99;101133.19;5042333;28;20168;-65
2021/03/25 02:31:28;;;;;;;56.08;29.30;;;;;;;4.54;64.22;101129.81;5015297;28;20373;-64
2021/03/25 02:33:56;;;;;;;54.33;29.60;;;;;;;4.56;64.46;101133.31;5030645;28;20021;-65
2021/03/25 02:36:28;;;;;;;49.22;28.98;;;;;;;5.08;63.38;101128.38;5035561;28;20508;-64
2021/03/25 02:38:59;;;;;;;51.92;28.30;;;;;;;4.66;64.05;101123.94;5018910;28;20034;-65
2021/03/25 02:41:28;;;;;;;54.90;26.70;;;;;;;5.39;62.44;101138.56;5041415;28;20026;-65
2021/03/25 02:43:58;;;;;;;50.47;26.65;;;;;;;5.03;61.74;101123.91;5033002;28;20021;-65
2021/03/25 02:46:31;;;;;;;46.63;26.30;;;;;;;4.69;63.05;101124.91;5047863;28;20033;-65
2021/03/25 02:49:00;;;;;;;49.80;28.70;;;;;;;4.50;63.62;101113.16;5042126;28;20024;-64
2021/03/25 02:51:36;;;;;;;54.53;28.30;;;;;;;4.45;64.22;101120.91;5049512;28;20103;-64
2021/03/25 02:54:02;;;;;;;54.97;28.70;;;;;;;4.35;64.60;101124.13;5036311;28;20021;-65
2021/03/25 02:56:50;;;;;;;50.28;28.52;;;;;;;4.17;65.27;101120.22;5051075;28;20384;-65
2021/03/25 02:59:21;;;;;;;52.83;28.20;;;;;;;4.34;64.99;101122.38;5032028;28;20032;-64
2021/03/25 03:01:51;;;;;;;52.60;29.13;;;;;;;4.44;64.53;101118.25;5050385;28;20086;-64
2021/03/25 03:04:25;;;;;;;54.97;29.52;;;;;;;4.27;65.11;101115.25;5049867;28;20035;-65
2021/03/25 03:07:09;;;;;;;46.90;28.75;;;;;;;4.29;65.13;101129.19;5049852;28;20121;-64
2021/03/25 03:09:37;;;;;;;56.00;29.55;;;;;;;4.49;64.13;101127.06;5050428;28;20047;-65
2021/03/25 03:12:08;;;;;;;51.08;29.55;;;;;;;4.51;64.58;101127.09;5048604;28;20024;-64
2021/03/25 03:14:44;;;;;;;53.63;29.45;;;;;;;4.04;65.18;101126.00;5024673;28;20025;-65
2021/03/25 03:17:17;;;;;;;52.05;31.15;;;;;;;4.14;65.68;101127.13;5017342;28;20098;-65
2021/03/25 03:19:50;;;;;;;55.90;29.80;;;;;;;4.28;65.45;101122.22;5013608;28;20063;-65
2021/03/25 03:22:15;;;;;;;54.83;26.88;;;;;;;4.48;63.75;101115.75;5065569;28;20388;-65
2021/03/25 03:24:41;;;;;;;45.78;27.08;;;;;;;4.44;63.39;101123.47;5033336;28;20017;-65
2021/03/25 03:27:14;;;;;;;48.70;26.88;;;;;;;4.49;63.51;101125.34;5033540;28;20059;-65
2021/03/25 03:29:42;;;;;;;54.40;28.77;;;;;;;4.28;64.25;101123.13;5029164;28;20388;-64
2021/03/25 03:32:16;;;;;;;55.58;29.83;;;;;;;4.40;64.67;101127.72;5025513;28;20455;-65
2021/03/25 03:34:43;;;;;;;56.72;31.13;;;;;;;4.57;64.54;101129.88;5017987;28;20044;-64
2021/03/25 03:37:23;;;;;;;56.65;29.63;;;;;;;4.38;64.49;101125.94;5046063;28;20036;-64
2021/03/25 03:39:53;;;;;;;52.17;30.27;;;;;;;4.26;64.73;101126.53;5054952;28;20130;-64
2021/03/25 03:42:19;;;;;;;58.53;31.20;;;;;;;4.36;64.68;101131.13;5036329;28;20029;-64
2021/03/25 03:44:48;;;;;;;55.08;31.10;;;;;;;4.26;64.32;101126.53;5031285;28;20068;-65
2021/03/25 03:47:15;;;;;;;55.28;30.08;;;;;;;4.59;63.80;101128.16;5036564;28;20377;-64
2021/03/25 03:50:18;;;;;;;52.08;29.48;;;;;;;4.81;63.16;101123.44;5033589;28;20028;-64
2021/03/25 03:52:46;;;;;;;58.30;30.60;;;;;;;4.54;63.52;101125.47;5003111;28;20075;-64
2021/03/25 03:55:12;;;;;;;48.60;26.35;;;;;;;4.36;63.61;101120.66;5037117;28;20381;-64
2021/03/25 03:57:40;;;;;;;51.95;27.98;;;;;;;4.42;63.68;101120.84;5052803;28;20117;-64
2021/03/25 04:00:09;;;;;;;51.63;27.10;;;;;;;4.28;63.48;101120.50;5035853;28;20401;-64
2021/03/25 04:02:47;;;;;;;49.13;28.38;;;;;;;4.30;63.19;101115.31;5034942;28;20045;-64
2021/03/25 04:05:19;;;;;;;54.00;29.02;;;;;;;4.06;64.01;101121.69;5038376;28;20030;-65
2021/03/25 04:07:48;;;;;;;51.85;28.17;;;;;;;3.96;64.46;101111.03;5051304;28;20028;-65
2021/03/25 04:10:26;;;;;;;54.30;29.58;;;;;;;4.02;64.63;101125.97;5041382;28;20060;-64
2021/03/25 04:12:54;;;;;;;57.63;31.67;;;;;;;4.05;65.10;101120.81;5036392;28;20468;-64
2021/03/25 04:15:25;;;;;;;57.83;31.13;;;;;;;4.06;65.60;101125.19;5033656;28;20032;-64
2021/03/25 04:17:56;;;;;;;62.72;32.25;;;;;;;4.07;64.71;101116.50;5017464;28;20485;-65
2021/03/25 04:20:22;;;;;;;57.92;31.40;;;;;;;4.47;64.00;101127.03;5044668;28;20084;-66
2021/03/25 04:22:51;;;;;;;54.22;28.60;;;;;;;4.48;63.73;101120.97;5032612;28;20029;-66
2021/03/25 04:25:21;;;;;;;45.70;27.08;;;;;;;4.81;61.80;101120.81;5017435;28;20021;-64
2021/03/25 04:28:09;;;;;;;49.40;27.07;;;;;;;4.38;62.97;101119.00;5035503;28;20116;-66
2021/03/25 04:30:39;;;;;;;46.72;26.30;;;;;;;3.99;63.73;101118.03;5024593;28;20033;-64
2021/03/25 04:33:05;;;;;;;56.17;30.05;;;;;;;3.64;65.38;101118.03;5026453;28;20033;-64
2021/03/25 04:35:30;;;;;;;50.70;28.08;;;;;;;3.56;65.55;101121.31;5054243;28;20074;-64
2021/03/25 04:37:57;;;;;;;58.55;31.77;;;;;;;3.54;66.27;101122.97;5054206;28;20027;-64
2021/03/25 04:40:31;;;;;;;52.22;30.20;;;;;;;4.02;65.43;101125.06;5045505;28;20043;-63
2021/03/25 04:42:57;;;;;;;56.63;28.55;;;;;;;3.87;64.91;101126.44;5019666;28;20021;-64
2021/03/25 04:45:36;;;;;;;46.38;26.70;;;;;;;4.02;64.41;101118.13;5017640;28;20021;-66
2021/03/25 04:48:03;;;;;;;56.10;29.15;;;;;;;4.20;64.01;101124.66;5032978;28;20040;-65
2021/03/25 04:50:33;;;;;;;60.40;30.23;;;;;;;4.43;63.99;101126.94;5039505;28;20181;-64
2021/03/25 04:53:03;;;;;;;54.25;28.42;;;;;;;4.11;64.33;101120.97;5018133;28;20027;-63
2021/03/25 04:55:33;;;;;;;52.55;28.40;;;;;;;3.96;64.37;101126.69;5053773;28;20539;-64
2021/03/25 04:58:04;;;;;;;54.65;28.63;;;;;;;3.74;65.40;101121.75;5028940;28;20528;-65
2021/03/25 05:00:40;;;;;;;56.65;30.60;;;;;;;4.06;64.70;101134.75;5039511;28;20037;-65
2021/03/25 05:03:08;;;;;;;66.53;32.58;;;;;;;4.19;64.98;101130.72;5023029;28;20055;-64
2021/03/25 05:05:34;;;;;;;55.30;29.40;;;;;;;4.22;64.64;101131.69;5035521;28;20021;-64
2021/03/25 05:08:03;;;;;;;58.42;29.02;;;;;;;4.37;64.09;101132.91;5026480;28;20442;-64
2021/03/25 05:10:38;;;;;;;57.42;29.88;;;;;;;4.29;63.93;101137.03;5032488;28;20546;-64
2021/03/25 05:13:05;;;;;;;50.83;27.00;;;;;;;5.08;61.73;101137.94;5059847;28;20404;-64
2021/03/25 05:15:32;;;;;;;47.63;26.95;;;;;;;4.24;62.79;101132.59;5016090;28;20034;-64
2021/03/25 05:18:16;;;;;;;51.72;27.60;;;;;;;4.16;63.90;101138.47;5044910;28;20108;-65
2021/03/25 05:20:58;;;;;;;51.25;26.73;;;;;;;4.11;64.78;101140.97;5035776;28;20393;-65
2021/03/25 05:23:35;;;;;;;53.80;28.90;;;;;;;3.97;65.40;101141.50;5024255;28;20468;-65
2021/03/25 05:26:07;;;;;;;44.75;27.20;;;;;;;4.39;63.79;101141.66;5016524;28;20420;-63
2021/03/25 05:28:43;;;;;;;51.47;28.63;;;;;;;4.45;63.76;101138.28;5033122;28;20075;-64
2021/03/25 05:31:12;;;;;;;54.47;30.42;;;;;;;4.48;63.75;101146.22;5032226;28;20503;-65
2021/03/25 05:33:38;;;;;;;51.97;29.65;;;;;;;4.83;63.05;101145.25;5033556;28;20561;-65
2021/03/25 05:36:11;;;;;;;55.13;29.02;;;;;;;4.59;63.57;101159.50;5035236;28;20396;-65
2021/03/25 05:38:37;;;;;;;61.83;32.83;;;;;;;4.34;65.63;101148.50;5030995;28;20017;-63
2021/03/25 05:41:05;;;;;;;56.63;31.20;;;;;;;5.15;63.88;101152.91;5048022;28;20473;-64
2021/03/25 05:44:09;;;;;;;68.78;32.55;;;;;;;4.99;64.00;101149.06;5050724;28;20036;-64
2021/03/25 05:46:37;;;;;;;54.20;29.63;;;;;;;4.95;63.70;101147.25;5046247;28;20467;-63
2021/03/25 05:49:20;;;;;;;57.10;30.42;;;;;;;5.05;63.67;101162.31;5053231;28;20082;-64
2021/03/25 05:52:13;;;;;;;61.33;31.45;;;;;;;5.10;63.92;101160.66;5025033;28;20531;-64
2021/03/25 05:54:50;;;;;;;54.38;29.27;;;;;;;5.12;63.51;101155.47;5032581;28;20036;-63
2021/03/25 05:57:25;;;;;;;49.92;29.08;;;;;;;5.25;62.94;101167.06;5044837;28;20458;-63
2021/03/25 06:00:41;;;;;;;51.97;30.40;;;;;;;5.55;62.63;101159.78;5036907;28;20553;-64
2021/03/25 06:03:13;;;;;;;56.00;26.52;;;;;;;5.44;62.26;101160.47;5010227;28;20485;-64
2021/03/25 06:05:38;;;;;;;53.05;30.38;;;;;;;5.78;63.28;101152.41;5018663;28;20124;-64
2021/03/25 06:08:32;;;;;;;57.20;31.55;;;;;;;5.86;62.46;101161.25;5026989;28;20056;-64
2021/03/25 06:11:10;;;;;;;53.95;30.88;;;;;;;6.06;62.06;101163.38;5020025;28;20064;-65
2021/03/25 06:14:05;;;;;;;51.40;29.02;;;;;;;6.34;61.85;101157.75;5035034;28;20054;-65
2021/03/25 06:16:56;;;;;;;56.42;30.65;;;;;;;6.79;60.99;101164.53;5030428;28;20017;-64
2021/03/25 06:19:36;;;;;;;;;;;;;;;7.31;58.42;101162.59;5044978;28;20033;-64
2021/03/25 06:22:35;;;;;;;51.50;29.38;;;;;;;7.75;57.80;101165.72;5051113;28;20335;-64
2021/03/25 06:25:14;;;;;;;55.47;29.88;;;;;;;8.24;56.22;101167.94;5028219;28;20017;-64
2021/03/25 06:28:03;;;;;;;48.92;30.65;;;;;;;9.19;55.00;101167.69;5026253;28;20021;-65
2021/03/25 06:30:32;;;;;;;49.13;28.23;;;;;;;9.67;53.87;101165.22;5030558;28;20033;-66
2021/03/25 06:33:05;;;;;;;44.25;27.25;;;;;;;9.96;52.82;101164.41;5016417;28;20025;-65
2021/03/25 06:35:41;;;;;;;41.60;26.23;;;;;;;10.63;51.87;101169.72;5034649;28;20106;-64
2021/03/25 06:38:24;;;;;;;42.20;26.20;;;;;;;11.01;50.98;101167.88;5025560;28;20021;-64
2021/03/25 06:41:08;;;;;;;40.08;25.85;;;;;;;10.75;50.84;101178.50;5033990;28;20112;-65
2021/03/25 06:43:41;;;;;;;43.35;27.60;;;;;;;10.96;50.95;101172.28;5040272;28;20040;-64
2021/03/25 06:46:20;;;;;;;47.72;28.55;;;;;;;11.25;50.73;101178.34;5016950;28;20025;-65
2021/03/25 06:48:52;;;;;;;41.90;27.10;;;;;;;11.39;50.76;101181.84;5014463;28;20392;-65
2021/03/25 06:51:29;;;;;;;48.42;26.92;;;;;;;11.78;47.92;101183.41;4998043;28;20032;-66
2021/03/25 06:54:21;;;;;;;45.17;28.58;;;;;;;11.42;50.04;101181.81;5031737;28;20116;-65
2021/03/25 06:56:49;;;;;;;46.80;27.10;;;;;;;11.83;49.74;101181.59;5010093;28;20037;-66
2021/03/25 06:59:33;;;;;;;39.92;26.30;;;;;;;12.38;49.17;101178.59;5042302;28;20033;-65
2021/03/25 07:02:07;;;;;;;42.47;26.88;;;;;;;12.44;49.34;101183.84;5014020;28;20080;-65
2021/03/25 07:04:36;;;;;;;45.17;27.67;;;;;;;12.88;47.72;101191.34;5033272;28;20017;-66
2021/03/25 07:07:04;;;;;;;46.80;27.65;;;;;;;13.53;45.19;101190.63;5017558;28;20029;-65
2021/03/25 07:09:32;;;;;;;47.30;27.67;;;;;;;14.31;44.76;101185.97;5020416;28;20064;-66
2021/03/25 07:11:58;;;;;;;42.05;28.40;;;;;;;15.51;41.85;101184.59;5036463;28;20026;-66
2021/03/25 07:14:34;;;;;;;38.33;26.45;;;;;;;16.40;39.87;101181.69;5031565;28;20029;-66
2021/03/25 07:17:00;;;;;;;36.53;25.45;;;;;;;16.94;38.17;101192.72;5037767;28;20108;-66
2021/03/25 07:19:25;;;;;;;41.85;27.42;;;;;;;16.82;37.82;101193.06;5054746;28;20032;-66
2021/03/25 07:21:52;;;;;;;39.35;25.90;;;;;;;17.09;38.15;101194.13;5036142;28;20030;-66
2021/03/25 07:24:34;;;;;;;38.72;26.75;;;;;;;16.85;38.12;101192.97;5020770;28;20032;-65
2021/03/25 07:27:19;;;;;;;39.30;24.55;;;;;;;16.18;39.13;101192.03;5017900;28;20488;-66
2021/03/25 07:30:03;;;;;;;38.22;28.92;;;;;;;15.46;40.81;101188.28;5034153;28;20036;-66
2021/03/25 07:32:36;;;;;;;45.53;29.98;;;;;;;14.67;42.13;101195.97;5034184;28;20017;-65
2021/03/25 07:35:33;;;;;;;41.83;27.67;;;;;;;15.97;40.60;101189.84;5042492;28;20033;-66
2021/03/25 07:38:00;;;;;;;38.08;26.75;;;;;;;17.35;37.79;101186.28;5036953;28;20028;-65
2021/03/25 07:40:35;;;;;;;40.80;27.63;;;;;;;18.63;37.57;101192.94;5030555;28;20087;-65
2021/03/25 07:43:23;;;;;;;39.20;25.48;;;;;;;19.93;34.83;101186.41;5071731;28;20021;-65
2021/03/25 07:45:50;;;;;;;76.28;45.65;;;;;;;19.83;34.50;101186.78;5040689;28;20055;-67
2021/03/25 07:48:22;;;;;;;40.60;26.42;;;;;;;20.21;33.54;101186.16;5056951;28;20424;-66
2021/03/25 07:50:49;;;;;;;41.50;27.20;;;;;;;20.67;32.68;101184.28;5057159;28;20031;-65
2021/03/25 07:53:24;;;;;;;39.88;27.70;;;;;;;20.80;32.61;101182.78;5075074;28;20108;-65
2021/03/25 07:55:50;;;;;;;37.53;26.35;;;;;;;21.38;32.68;101193.66;5074845;28;20035;-67
2021/03/25 07:58:36;;;;;;;38.72;25.67;;;;;;;22.01;32.41;101187.13;5056938;28;20029;-66
2021/03/25 08:01:16;;;;;;;48.88;37.70;;;;;;;23.20;30.29;101195.41;5074219;28;20074;-66
2021/03/25 08:03:47;;;;;;;32.25;27.30;;;;;;;23.67;29.02;101192.88;5057035;28;20103;-66
2021/03/25 08:06:20;;;;;;;33.30;25.70;;;;;;;24.15;28.53;101194.72;5056922;28;20070;-67
2021/03/25 08:08:57;;;;;;;38.05;28.05;;;;;;;24.02;29.01;101196.34;5056785;28;20575;-65
2021/03/25 08:11:23;;;;;;;34.55;27.00;;;;;;;24.37;28.69;101193.41;5056627;28;20479;-66
2021/03/25 08:13:59;;;;;;;38.72;26.48;;;;;;;24.93;29.23;101195.50;5056796;28;20035;-67
2021/03/25 08:16:27;;;;;;;33.33;23.88;;;;;;;25.22;27.76;101200.03;5056625;28;20111;-67
2021/03/25 08:19:14;;;;;;;31.70;23.60;;;;;;;25.97;26.30;101196.16;5056171;28;20338;-66
2021/03/25 08:21:45;;;;;;;27.63;22.65;;;;;;;24.59;27.49;101200.22;5056950;28;20029;-66
2021/03/25 08:24:26;;;;;;;32.20;26.00;;;;;;;24.01;28.36;101197.31;5056603;28;20027;-66
2021/03/25 08:27:05;;;;;;;42.72;32.60;;;;;;;24.00;29.18;101195.56;5056526;28;20027;-66
2021/03/25 08:29:41;;;;;;;30.58;25.38;;;;;;;25.40;27.57;101203.38;5056462;28;20539;-67
2021/03/25 08:32:12;;;;;;;31.58;24.50;;;;;;;26.17;25.47;101198.50;5056379;28;20024;-66
2021/03/25 08:35:15;;;;;;;32.00;25.67;;;;;;;26.54;25.70;101184.34;5074268;28;20025;-66
2021/03/25 08:38:16;;;;;;;32.30;25.38;;;;;;;26.41;26.06;101198.72;5074255;28;20024;-67
2021/03/25 08:40:44;;;;;;;30.63;23.40;;;;;;;25.62;26.41;101191.25;4977812;28;20043;-68
2021/03/25 08:43:25;;;;;;;31.90;23.27;;;;;;;25.21;27.35;101193.75;5036749;28;20045;-68
2021/03/25 08:45:54;;;;;;;33.53;25.52;;;;;;;24.35;27.96;101184.56;5032866;28;20086;-66
2021/03/25 08:48:33;;;;;;;33.42;25.58;;;;;;;24.92;28.57;101193.78;5034432;28;20033;-66
2021/03/25 08:51:08;;;;;;;32.08;24.30;;;;;;;25.03;28.03;101194.91;5035871;28;20086;-66
2021/03/25 08:53:45;;;;;;;37.45;25.67;;;;;;;25.14;27.77;101197.81;5033828;28;20021;-66
2021/03/25 08:56:43;;;;;;;37.33;25.70;;;;;;;24.73;27.52;101199.38;5032866;28;20029;-67
2021/03/25 08:59:16;;;;;;;30.55;24.30;;;;;;;26.05;26.44;101197.47;5046006;28;20025;-66
2021/03/25 09:01:44;;;;;;;35.55;24.85;;;;;;;25.95;27.14;101208.91;5053566;28;20028;-66
2021/03/25 09:04:10;;;;;;;34.50;25.00;;;;;;;26.20;26.68;101201.84;5034308;28;20020;-66
2021/03/25 09:06:38;;;;;;;34.60;24.88;;;;;;;24.99;27.36;101205.03;5034303;28;20024;-67
2021/03/25 09:09:16;;;;;;;35.85;25.23;;;;;;;26.22;26.47;101199.06;5035505;28;20056;-67
2021/03/25 09:11:41;;;;;;;33.35;25.05;;;;;;;26.23;25.50;101196.25;5049393;28;20100;-66
2021/03/25 09:14:18;;;;;;;34.53;24.98;;;;;;;27.26;24.75;101200.06;5032811;28;20116;-69
2021/03/25 09:16:44;;;;;;;34.83;24.98;;;;;;;28.34;23.53;101204.94;5034300;28;20028;-67
2021/03/25 09:19:20;;;;;;;35.28;24.55;;;;;;;28.53;23.71;101198.94;5029613;28;20539;-68
2021/03/25 09:21:47;;;;;;;37.90;25.60;;;;;;;27.89;23.81;101203.72;4999239;28;20039;-68
2021/03/25 09:24:13;;;;;;;37.63;26.08;;;;;;;28.40;23.50;101201.72;4999146;28;20031;-68
2021/03/25 09:26:50;;;;;;;36.15;24.27;;;;;;;29.01;23.41;101205.22;5042618;28;20129;-66
2021/03/25 09:29:18;;;;;;;34.20;25.33;;;;;;;28.95;23.24;101203.88;5041163;28;20029;-68
2021/03/25 09:31:55;;;;;;;37.13;25.52;;;;;;;29.75;22.47;101206.56;5028178;28;20039;-68
2021/03/25 09:34:23;;;;;;;36.25;24.42;;;;;;;30.45;20.29;101202.59;5035999;28;20417;-67
2021/03/25 09:36:49;;;;;;;38.95;28.52;;;;;;;30.35;21.04;101214.25;5033719;28;20072;-67
2021/03/25 09:39:25;;;;;;;39.17;25.90;;;;;;;31.47;19.99;101203.75;5042524;28;20480;-67
2021/03/25 09:41:51;;;;;;;38.58;25.42;;;;;;;29.84;20.42;101200.34;5042729;28;20369;-68
2021/03/25 09:44:25;;;;;;;40.78;27.48;;;;;;;29.65;20.13;101194.72;5027292;28;20020;-68
2021/03/25 09:46:53;;;;;;;41.10;26.63;;;;;;;31.82;19.15;101196.09;5038107;28;20020;-65
2021/03/25 09:49:23;;;;;;;63.80;47.38;;;;;;;31.77;20.60;101192.06;5040942;28;20020;-67
2021/03/25 09:52:09;;;;;;;58.70;39.20;;;;;;;33.64;17.29;101197.16;5038277;28;20420;-67
2021/03/25 09:54:39;;;;;;;46.88;28.85;;;;;;;32.64;18.70;101187.59;5032833;28;20029;-67
2021/03/25 09:57:36;;;;;;;45.08;29.63;;;;;;;33.26;17.63;101185.41;5031523;28;20033;-67
2021/03/25 10:00:10;;;;;;;46.78;32.25;;;;;;;33.91;17.14;101187.16;5051936;28;20056;-66
2021/03/25 10:02:41;;;;;;;50.53;30.30;;;;;;;33.61;17.63;101186.50;5050323;28;20097;-67
2021/03/25 10:05:30;;;;;;;49.25;31.58;;;;;;;32.31;19.67;101178.03;5040583;28;20017;-65
2021/03/25 10:08:00;;;;;;;44.53;27.88;;;;;;;33.44;17.21;101181.84;5052544;28;20103;-67
2021/03/25 10:10:45;;;;;;;45.13;29.00;;;;;;;33.56;18.29;101180.63;5039361;28;20020;-69
2021/03/25 10:13:17;;;;;;;44.95;28.38;;;;;;;34.75;16.07;101172.31;5029948;28;20036;-67
2021/03/25 10:15:45;;;;;;;40.15;27.25;;;;;;;33.02;18.58;101181.34;5052286;28;20108;-67
2021/03/25 10:18:16;;;;;;;43.95;29.70;;;;;;;33.73;17.41;101184.44;5051891;28;20484;-66
2021/03/25 10:20:58;;;;;;;43.50;28.02;;;;;;;33.53;18.28;101178.19;5049388;28;20049;-67
2021/03/25 10:23:37;;;;;;;43.63;28.52;;;;;;;34.36;16.60;101176.28;5047974;28;20025;-67
2021/03/25 10:26:11;;;;;;;40.50;28.17;;;;;;;33.72;17.45;101173.63;5030988;28;20028;-67
2021/03/25 10:28:41;;;;;;;38.00;27.58;;;;;;;32.60;18.87;101172.53;5048630;28;20021;-67
2021/03/25 10:31:14;;;;;;;45.78;29.27;;;;;;;33.35;17.32;101169.97;5029396;28;20539;-67
2021/03/25 10:33:39;;;;;;;43.22;29.33;;;;;;;34.29;16.79;101173.34;5023902;28;20060;-67
2021/03/25 10:36:14;;;;;;;45.05;29.45;;;;;;;31.57;19.23;101168.34;5044443;28;20561;-67
2021/03/25 10:38:50;;;;;;;45.10;29.00;;;;;;;31.83;18.25;101169.66;5033440;28;20090;-66
2021/03/25 10:41:19;;;;;;;45.88;29.70;;;;;;;31.67;19.04;101179.25;5033452;28;20487;-67
2021/03/25 10:43:49;;;;;;;44.70;28.50;;;;;;;32.03;18.53;101181.47;5037014;28;20035;-67
2021/03/25 10:46:25;;;;;;;42.58;28.42;;;;;;;35.29;15.63;101189.53;5024388;28;20053;-67
2021/03/25 10:48:58;;;;;;;40.55;26.95;;;;;;;33.05;17.11;101191.09;5034094;28;20041;-67
2021/03/25 10:51:24;;;;;;;44.05;27.33;;;;;;;34.42;16.57;101205.78;5044553;28;20108;-67
2021/03/25 10:53:50;;;;;;;39.35;27.63;;;;;;;34.23;16.61;101184.03;5050763;28;20059;-67
2021/03/25 10:56:23;;;;;;;40.53;27.88;;;;;;;33.43;17.74;101163.75;5028599;28;20029;-68
2021/03/25 10:59:00;;;;;;;41.38;27.98;;;;;;;34.57;16.70;101147.66;5015847;28;20394;-67
2021/03/25 11:01:31;;;;;;;50.78;32.55;;;;;;;33.66;17.60;101154.13;5030164;28;20484;-67
2021/03/25 11:03:58;;;;;;;38.67;28.02;;;;;;;36.52;14.79;101139.59;5020552;28;20107;-67
2021/03/25 11:06:30;;;;;;;40.33;27.98;;;;;;;36.28;15.34;101133.13;5037185;28;20070;-67
2021/03/25 11:09:08;;;;;;;41.63;28.58;;;;;;;38.34;13.50;101142.41;5033995;28;20450;-67
2021/03/25 11:11:36;;;;;;;39.30;28.42;;;;;;;35.39;15.67;101129.94;5019515;28;20032;-67
2021/03/25 11:14:06;;;;;;;38.50;27.58;;;;;;;38.09;14.35;101134.31;5022484;28;20576;-67
2021/03/25 11:16:34;;;;;;;40.00;27.98;;;;;;;40.60;12.37;101133.44;5026852;28;20029;-67
2021/03/25 11:19:08;;;;;;;45.67;29.77;;;;;;;39.01;13.47;101132.31;5026866;28;20025;-67
2021/03/25 11:21:36;;;;;;;48.03;28.85;;;;;;;37.16;13.87;101122.25;5030569;28;20031;-67
2021/03/25 11:24:10;;;;;;;42.70;28.50;;;;;;;34.57;15.92;101120.28;5022239;28;20074;-67
2021/03/25 11:26:35;;;;;;;41.80;29.42;;;;;;;33.64;16.49;101126.06;5015696;28;20030;-67
2021/03/25 11:29:01;;;;;;;43.20;28.77;;;;;;;35.77;15.50;101109.47;5013710;28;20041;-67
2021/03/25 11:31:31;;;;;;;41.17;27.73;;;;;;;38.05;13.96;101122.84;5022698;28;20021;-67
2021/03/25 11:33:57;;;;;;;38.30;26.73;;;;;;;38.90;12.71;101110.75;5032640;28;20025;-68
2021/03/25 11:36:43;;;;;;;41.22;25.65;;;;;;;38.59;13.17;101111.81;5039239;28;20021;-67
2021/03/25 11:39:19;;;;;;;37.80;25.25;;;;;;;39.77;11.85;101113.66;5038456;28;20123;-68
2021/03/25 11:41:47;;;;;;;41.00;26.40;;;;;;;41.06;11.30;101113.72;5023303;28;20017;-68